Time;durP1;ratioP1;P1;durP2;ratioP2;P2;SDS_P1;SDS_P2;PMS_P1;PMS_P2;Temp;Humidity;BMP_temperature;BMP_pressure;BME280_temperature;BME280_humidity;BME280_pressure;Samples;Min_cycle;Max_cycle;Signal;HPM_P1;HPM_P2
2021/07/26 00:02:10;;;;;;;17.73;10.72;;;;;;;16.94;89.23;94745.38;1630479;87;21014;-55
2021/07/26 00:04:37;;;;;;;18.77;10.35;;;;;;;16.87;88.81;94752.13;1625614;87;21527;-54
2021/07/26 00:07:05;;;;;;;18.92;10.43;;;;;;;16.79;88.86;94757.98;1624287;87;21847;-55
2021/07/26 00:09:36;;;;;;;14.45;9.93;;;;;;;16.75;89.01;94756.02;1624437;88;21046;-54
2021/07/26 00:12:05;;;;;;;13.62;9.60;;;;;;;16.71;89.15;94757.49;1629155;87;21557;-54
2021/07/26 00:14:34;;;;;;;15.68;9.40;;;;;;;16.65;89.13;94751.08;1633890;86;21117;-55
2021/07/26 00:17:01;;;;;;;14.73;10.25;;;;;;;16.59;89.21;94746.86;1637454;87;21454;-54
2021/07/26 00:19:29;;;;;;;18.57;9.85;;;;;;;16.57;89.30;94748.59;1625895;87;21466;-53
2021/07/26 00:21:56;;;;;;;14.75;9.50;;;;;;;16.55;89.47;94741.37;1626772;87;21097;-55
2021/07/26 00:24:24;;;;;;;12.90;8.68;;;;;;;16.53;89.45;94739.06;1631223;86;20966;-54
2021/07/26 00:26:53;;;;;;;16.65;9.68;;;;;;;16.50;89.63;94745.59;1631523;87;20986;-55
2021/07/26 00:29:21;;;;;;;12.20;9.85;;;;;;;16.49;90.00;94740.52;1630633;87;21445;-53
2021/07/26 00:31:50;;;;;;;15.70;10.18;;;;;;;16.48;89.39;94743.15;1628721;86;20989;-54
2021/07/26 00:34:27;;;;;;;15.43;9.90;;;;;;;16.42;89.48;94737.55;1628157;87;21069;-54
2021/07/26 00:36:58;;;;;;;18.35;8.60;;;;;;;16.43;89.51;94739.69;1624848;87;21438;-54
2021/07/26 00:39:31;;;;;;;12.80;9.10;;;;;;;16.40;89.21;94738.62;1625611;87;21010;-54
2021/07/26 00:41:58;;;;;;;15.83;10.38;;;;;;;16.32;89.22;94740.88;1625516;87;21093;-54
2021/07/26 00:44:27;;;;;;;12.78;9.80;;;;;;;16.26;89.35;94744.21;1637246;86;22298;-55
2021/07/26 00:46:54;;;;;;;19.37;9.10;;;;;;;16.22;89.51;94742.27;1624798;87;20966;-56
2021/07/26 00:49:23;;;;;;;19.73;9.53;;;;;;;16.21;89.67;94731.64;1630206;86;21080;-53
2021/07/26 00:51:52;;;;;;;20.75;9.83;;;;;;;16.16;89.91;94734.50;1634498;87;21104;-54
2021/07/26 00:54:23;;;;;;;22.67;11.05;;;;;;;16.11;89.99;94732.38;1633640;87;21064;-54
2021/07/26 00:56:51;;;;;;;34.85;17.65;;;;;;;16.04;90.00;94728.63;1647385;86;21114;-54
2021/07/26 00:59:18;;;;;;;34.35;14.87;;;;;;;15.94;90.12;94723.05;1610065;87;21054;-54
2021/07/26 01:01:45;;;;;;;33.05;15.43;;;;;;;15.86;90.41;94728.86;1630014;87;21018;-54
2021/07/26 01:04:13;;;;;;;28.50;13.72;;;;;;;15.81;90.67;94727.38;1633997;87;21025;-54
2021/07/26 01:06:41;;;;;;;32.10;14.33;;;;;;;15.75;90.92;94725.91;1631807;87;20973;-55
2021/07/26 01:09:08;;;;;;;30.62;16.57;;;;;;;15.72;91.35;94725.48;1630683;87;21161;-54
2021/07/26 01:11:35;;;;;;;36.60;16.65;;;;;;;15.72;91.48;94728.89;1624722;88;21108;-54
2021/07/26 01:14:02;;;;;;;26.25;13.60;;;;;;;15.71;91.37;94728.75;1607573;87;21057;-55
2021/07/26 01:16:29;;;;;;;24.95;15.40;;;;;;;15.66;91.48;94734.34;1624926;87;21066;-55
2021/07/26 01:18:56;;;;;;;17.20;11.60;;;;;;;15.63;91.54;94729.77;1627215;87;21021;-54
2021/07/26 01:21:23;;;;;;;20.60;12.28;;;;;;;15.63;91.74;94729.77;1628479;86;21143;-54
2021/07/26 01:23:51;;;;;;;47.70;13.18;;;;;;;15.59;91.49;94730.59;1624540;87;21404;-55
2021/07/26 01:26:24;;;;;;;20.25;13.58;;;;;;;15.50;91.49;94727.13;1635529;87;21049;-55
2021/07/26 01:28:54;;;;;;;;;;;;;;;15.43;91.66;94729.68;1639506;87;21081;-54
2021/07/26 01:31:20;;;;;;;16.48;12.18;;;;;;;15.37;91.87;94733.59;1635245;87;20142;-55
2021/07/26 01:33:49;;;;;;;17.25;11.85;;;;;;;15.28;92.06;94735.81;1629851;87;22401;-54
2021/07/26 01:36:16;;;;;;;23.77;14.10;;;;;;;15.24;92.38;94734.46;1633952;87;21069;-54
2021/07/26 01:38:45;;;;;;;20.08;11.57;;;;;;;15.23;92.55;94732.94;1631457;87;20979;-54
2021/07/26 01:41:19;;;;;;;15.72;11.28;;;;;;;15.21;92.63;94732.65;1626065;87;21127;-54
2021/07/26 01:46:51;;;;;;;20.55;11.95;;;;;;;15.17;92.81;94737.62;1626817;87;21141;-54
2021/07/26 01:49:45;;;;;;;15.88;12.23;;;;;;;15.19;92.85;94737.27;1624541;87;21058;-54
2021/07/26 01:52:13;;;;;;;34.50;18.90;;;;;;;15.25;93.02;94744.31;1625841;86;21434;-54
2021/07/26 01:54:40;;;;;;;22.07;12.37;;;;;;;15.29;92.68;94745.69;1633605;87;20981;-54
2021/07/26 01:57:07;;;;;;;17.15;11.60;;;;;;;15.33;92.44;94743.48;1636059;87;21076;-54
2021/07/26 01:59:34;;;;;;;18.32;11.55;;;;;;;15.36;92.03;94742.52;1633753;87;21142;-55
2021/07/26 02:02:00;;;;;;;18.70;12.93;;;;;;;15.39;91.83;94749.13;1624495;87;21153;-54
2021/07/26 02:04:27;;;;;;;18.25;11.73;;;;;;;15.41;91.72;94747.42;1630780;87;21498;-54
2021/07/26 02:06:54;;;;;;;27.48;13.98;;;;;;;15.38;91.64;94755.28;1626172;87;21022;-54
2021/07/26 02:09:20;;;;;;;27.80;13.05;;;;;;;15.30;91.46;94760.30;1625699;87;21569;-55
2021/07/26 02:11:49;;;;;;;28.27;11.90;;;;;;;15.22;91.53;94762.64;1624657;87;21019;-54
2021/07/26 02:14:16;;;;;;;24.75;13.25;;;;;;;15.15;91.56;94754.72;1625517;87;21541;-55
2021/07/26 02:16:43;;;;;;;25.15;12.63;;;;;;;15.11;91.78;94752.76;1630017;87;20993;-54
2021/07/26 02:19:10;;;;;;;23.22;15.03;;;;;;;15.06;91.92;94751.27;1634395;86;21054;-54
2021/07/26 02:21:36;;;;;;;15.48;11.70;;;;;;;15.04;92.21;94755.88;1627139;87;21002;-54
2021/07/26 02:24:07;;;;;;;22.17;12.05;;;;;;;15.06;92.36;94752.04;1624504;87;21035;-55
2021/07/26 02:26:34;;;;;;;18.50;12.28;;;;;;;15.06;92.42;94752.04;1624437;87;20987;-54
2021/07/26 02:29:01;;;;;;;22.37;12.43;;;;;;;15.06;92.26;94759.58;1624301;87;21081;-54
2021/07/26 02:31:27;;;;;;;20.27;12.80;;;;;;;15.06;92.08;94760.35;1630526;86;21021;-54
2021/07/26 02:33:54;;;;;;;16.00;11.45;;;;;;;15.08;91.98;94765.41;1630234;86;21112;-54
2021/07/26 02:36:21;;;;;;;16.73;11.03;;;;;;;15.08;91.67;94771.72;1630918;87;21818;-54
2021/07/26 02:38:47;;;;;;;18.30;10.90;;;;;;;15.06;91.49;94769.27;1626797;87;21045;-55
2021/07/26 02:41:15;;;;;;;19.00;12.05;;;;;;;15.04;91.39;94774.53;1633265;87;20970;-56
2021/07/26 02:43:44;;;;;;;18.90;11.95;;;;;;;15.01;91.40;94772.08;1604792;88;21549;-55
2021/07/26 02:46:11;;;;;;;21.12;11.60;;;;;;;15.00;91.52;94777.47;1634247;87;20977;-55
2021/07/26 02:48:39;;;;;;;17.73;11.40;;;;;;;15.03;91.70;94779.29;1635735;87;21543;-55
2021/07/26 02:51:05;;;;;;;21.97;12.00;;;;;;;15.09;91.83;94782.95;1634455;87;21074;-53
2021/07/26 02:53:33;;;;;;;22.48;13.58;;;;;;;15.13;91.55;94784.91;1624588;88;20978;-52
2021/07/26 02:56:01;;;;;;;23.90;11.70;;;;;;;15.12;91.45;94785.38;1626529;87;21510;-55
2021/07/26 02:58:29;;;;;;;29.55;12.78;;;;;;;15.04;91.48;94786.36;1646949;86;21058;-55
2021/07/26 03:00:56;;;;;;;24.10;12.53;;;;;;;14.93;91.38;94779.84;1664382;85;21094;-55
2021/07/26 03:03:23;;;;;;;23.67;12.70;;;;;;;14.86;91.50;94787.92;1667806;85;20965;-54
2021/07/26 03:05:50;;;;;;;20.95;12.45;;;;;;;14.83;91.75;94787.45;1667756;85;21509;-55
2021/07/26 03:08:17;;;;;;;20.05;12.18;;;;;;;14.86;91.83;94787.92;1662541;84;21022;-57
2021/07/26 03:10:47;;;;;;;20.08;10.88;;;;;;;14.87;91.87;94796.98;1635679;87;21567;-60
2021/07/26 03:13:13;;;;;;;18.90;10.58;;;;;;;14.88;91.85;94795.13;1626173;88;21981;-61
2021/07/26 03:15:41;;;;;;;22.98;10.75;;;;;;;14.94;91.88;94803.53;1618855;88;21017;-62
2021/07/26 03:18:08;;;;;;;24.37;12.45;;;;;;;14.95;91.73;94798.92;1617505;88;21077;-62
2021/07/26 03:20:35;;;;;;;33.13;12.60;;;;;;;14.96;91.80;94792.77;1617735;87;20994;-63
2021/07/26 03:23:10;;;;;;;16.48;12.30;;;;;;;14.99;91.81;94795.97;1619236;88;21031;-65
2021/07/26 03:25:41;;;;;;;26.48;11.53;;;;;;;15.00;91.95;94795.48;1617498;88;20993;-65
2021/07/26 03:28:08;;;;;;;17.10;10.90;;;;;;;15.06;91.74;94797.77;1617201;88;21507;-64
2021/07/26 03:30:37;;;;;;;18.25;10.28;;;;;;;15.10;91.55;94800.33;1617494;88;21088;-57
2021/07/26 03:33:06;;;;;;;14.68;10.00;;;;;;;15.13;91.35;94798.77;1617618;87;21465;-55
2021/07/26 03:35:33;;;;;;;15.45;10.78;;;;;;;15.10;91.11;94805.27;1616479;87;21031;-57
2021/07/26 03:38:00;;;;;;;17.82;11.15;;;;;;;15.06;91.09;94805.30;1617737;87;21130;-53
2021/07/26 03:40:27;;;;;;;14.70;10.55;;;;;;;15.05;91.38;94803.16;1616688;87;21041;-54
2021/07/26 03:42:56;;;;;;;20.27;11.08;;;;;;;15.11;91.33;94803.24;1617582;87;21049;-54
2021/07/26 03:45:23;;;;;;;15.90;10.85;;;;;;;15.15;91.05;94804.59;1617532;88;21013;-54
2021/07/26 03:47:50;;;;;;;21.52;12.20;;;;;;;15.15;90.99;94806.62;1617632;88;21528;-54
2021/07/26 03:50:18;;;;;;;20.27;12.28;;;;;;;15.16;91.25;94803.99;1617645;88;21168;-54
2021/07/26 03:52:48;;;;;;;22.45;10.88;;;;;;;15.21;91.28;94809.62;1617636;87;21029;-54
2021/07/26 03:55:27;;;;;;;26.45;10.53;;;;;;;15.27;91.24;94820.21;1617422;87;21029;-53
2021/07/26 03:57:54;;;;;;;20.32;9.90;;;;;;;15.32;91.32;94825.12;1666825;85;21007;-54
2021/07/26 04:00:23;;;;;;;16.95;9.25;;;;;;;15.37;91.36;94825.83;1625289;87;21251;-55
2021/07/26 04:03:08;;;;;;;14.07;10.00;;;;;;;15.42;91.13;94822.42;1624452;88;21943;-55
2021/07/26 04:06:11;;;;;;;10.78;8.68;;;;;;;15.49;91.01;94822.03;1617449;87;20981;-54
2021/07/26 04:07:52;;;;;;;17.98;10.08;;;;;;;15.60;90.83;94818.09;1611281;87;21007;-54
2021/07/26 04:10:20;;;;;;;17.25;11.80;;;;;;;15.70;90.58;94820.90;1617008;87;21003;-53
2021/07/26 04:12:50;;;;;;;18.82;13.78;;;;;;;15.80;90.34;94817.41;1615465;87;21087;-54
2021/07/26 04:15:17;;;;;;;19.55;11.93;;;;;;;15.91;90.25;94822.52;1615639;88;21096;-54
2021/07/26 04:17:44;;;;;;;21.45;10.80;;;;;;;16.00;89.89;94825.20;1622118;87;21381;-54
2021/07/26 04:20:12;;;;;;;14.45;9.83;;;;;;;16.06;89.57;94819.11;1617401;87;21148;-54
2021/07/26 04:22:39;;;;;;;14.13;9.95;;;;;;;16.17;89.29;94825.46;1615116;88;21030;-54
2021/07/26 04:25:07;;;;;;;15.10;10.10;;;;;;;16.24;88.90;94832.02;1615053;87;21479;-54
2021/07/26 04:27:36;;;;;;;17.70;10.58;;;;;;;16.30;88.67;94835.00;1615314;88;21778;-54
2021/07/26 04:30:07;;;;;;;15.68;10.05;;;;;;;16.34;88.38;94839.76;1614997;88;20960;-54
2021/07/26 04:32:44;;;;;;;11.33;9.40;;;;;;;16.38;88.16;94828.60;1615077;88;20988;-54
2021/07/26 04:35:14;;;;;;;14.55;9.30;;;;;;;16.43;87.80;94836.88;1616161;87;21029;-54
2021/07/26 04:37:40;;;;;;;14.85;9.73;;;;;;;16.47;87.44;94833.27;1617950;87;20977;-54
2021/07/26 04:40:09;;;;;;;16.15;10.82;;;;;;;16.47;87.37;94831.89;1616044;87;21130;-54
2021/07/26 04:42:39;;;;;;;23.05;10.82;;;;;;;16.49;87.29;94829.39;1618027;87;21066;-55
2021/07/26 04:45:09;;;;;;;13.65;9.83;;;;;;;16.48;87.33;94831.41;1615742;87;21544;-54
2021/07/26 04:47:35;;;;;;;13.08;9.48;;;;;;;16.52;87.20;94827.06;1615052;88;20961;-54
2021/07/26 04:50:03;;;;;;;13.78;10.00;;;;;;;16.58;87.07;94830.67;1618032;87;21009;-53
2021/07/26 04:52:30;;;;;;;14.70;10.05;;;;;;;16.68;86.94;94832.06;1600655;87;21459;-55
2021/07/26 04:54:58;;;;;;;20.02;11.95;;;;;;;16.76;86.64;94833.20;1614911;88;21007;-54
2021/07/26 04:57:25;;;;;;;142.47;18.60;;;;;;;16.75;86.29;94828.89;1616575;87;20991;-55
2021/07/26 04:59:52;;;;;;;29.35;13.53;;;;;;;16.74;86.46;94828.75;1615747;87;21124;-55
2021/07/26 05:02:19;;;;;;;28.80;14.03;;;;;;;16.75;86.34;94824.08;1616581;87;21542;-53
2021/07/26 05:04:48;;;;;;;31.17;15.23;;;;;;;16.81;86.14;94829.72;1615915;87;39914;-54
2021/07/26 05:07:16;;;;;;;24.87;12.55;;;;;;;16.87;85.64;94829.19;1616067;87;21016;-54
2021/07/26 05:09:43;;;;;;;22.80;13.20;;;;;;;16.94;85.25;94835.72;1619672;86;21012;-54
2021/07/26 05:12:14;;;;;;;26.45;11.25;;;;;;;17.00;84.70;94830.98;1619744;87;21028;-54
2021/07/26 05:14:43;;;;;;;52.38;13.53;;;;;;;17.08;84.08;94826.55;1617581;87;20979;-53
2021/07/26 05:17:10;;;;;;;26.85;11.90;;;;;;;17.11;83.93;94831.13;1625762;87;21824;-54
2021/07/26 05:19:37;;;;;;;22.80;13.28;;;;;;;17.12;83.98;94827.84;1624396;88;21018;-54
2021/07/26 05:22:05;;;;;;;33.28;16.00;;;;;;;17.19;83.90;94835.01;1625327;87;20953;-54
2021/07/26 05:24:33;;;;;;;23.52;11.05;;;;;;;17.27;83.78;94842.44;1607833;88;21062;-55
2021/07/26 05:27:04;;;;;;;24.05;14.07;;;;;;;17.36;83.38;94834.61;1584756;87;21121;-56
2021/07/26 05:29:31;;;;;;;30.97;12.80;;;;;;;17.45;82.97;94836.62;1648932;86;22314;-57
2021/07/26 05:31:58;;;;;;;24.07;11.73;;;;;;;17.54;82.65;94828.74;1621020;87;21132;-55
2021/07/26 05:34:27;;;;;;;23.65;10.98;;;;;;;17.58;82.08;94830.06;1614745;87;21144;-58
2021/07/26 05:36:55;;;;;;;39.20;12.40;;;;;;;17.67;81.53;94829.89;1622043;86;21139;-57
2021/07/26 05:39:24;;;;;;;14.78;10.30;;;;;;;17.79;81.26;94829.40;1649455;84;21029;-55
2021/07/26 05:41:56;;;;;;;17.80;10.28;;;;;;;17.92;80.69;94829.14;1680964;84;21186;-56
2021/07/26 05:44:22;;;;;;;18.17;11.10;;;;;;;18.03;80.50;94827.08;1684993;84;21977;-55
2021/07/26 05:46:49;;;;;;;20.20;10.50;;;;;;;18.13;79.87;94825.77;1617846;87;21152;-55
2021/07/26 05:49:16;;;;;;;15.60;9.70;;;;;;;18.24;79.30;94832.83;1626893;86;21155;-60
2021/07/26 05:51:43;;;;;;;14.55;11.55;;;;;;;18.31;78.71;94828.22;1654629;85;21652;-55
2021/07/26 05:54:11;;;;;;;14.83;10.98;;;;;;;18.38;78.54;94825.62;1629535;87;21136;-55
2021/07/26 05:56:49;;;;;;;19.25;12.37;;;;;;;18.48;78.25;94823.54;1664116;84;21095;-56
2021/07/26 05:59:19;;;;;;;29.52;12.15;;;;;;;18.60;77.83;94822.36;1670240;83;21466;-61
2021/07/26 06:01:49;;;;;;;26.35;13.28;;;;;;;18.70;77.43;94816.73;1650151;85;21919;-58
2021/07/26 06:04:20;;;;;;;20.43;12.28;;;;;;;18.84;77.32;94810.20;1673970;84;21052;-55
2021/07/26 06:06:54;;;;;;;27.30;12.60;;;;;;;19.06;77.13;94813.75;1683431;84;21028;-55
2021/07/26 06:09:21;;;;;;;;;;;;;;;19.26;76.04;94810.81;1618092;87;21582;-55
2021/07/26 06:11:49;;;;;;;28.42;11.60;;;;;;;19.40;75.31;94805.03;1626876;86;20165;-64
2021/07/26 06:14:16;;;;;;;27.62;13.35;;;;;;;19.52;74.67;94800.27;1627753;86;21604;-62
2021/07/26 06:16:47;;;;;;;16.42;11.50;;;;;;;19.63;74.10;94796.09;1627377;86;21108;-67
2021/07/26 06:19:14;;;;;;;28.77;12.50;;;;;;;19.75;73.08;94799.79;1631238;86;21185;-58
2021/07/26 06:21:45;;;;;;;28.75;10.85;;;;;;;19.76;72.84;94795.73;1618387;86;21262;-59
2021/07/26 06:24:13;;;;;;;27.00;12.43;;;;;;;19.82;72.68;94803.50;1619008;85;21034;-66
2021/07/26 06:26:40;;;;;;;21.73;11.90;;;;;;;19.84;72.45;94798.17;1640995;85;22113;-57
2021/07/26 06:29:08;;;;;;;22.87;12.20;;;;;;;19.87;72.32;94798.55;1605335;87;21097;-60
2021/07/26 06:31:35;;;;;;;25.25;12.47;;;;;;;19.92;72.29;94794.99;1611970;86;22729;-58
2021/07/26 06:34:04;;;;;;;25.27;12.28;;;;;;;20.00;72.13;94787.66;1639104;86;21543;-57
2021/07/26 06:36:31;;;;;;;20.82;12.13;;;;;;;20.10;72.20;94788.20;1630550;85;21495;-60
2021/07/26 06:38:57;;;;;;;25.45;11.95;;;;;;;20.17;72.14;94782.87;1586316;87;21059;-58
2021/07/26 06:41:25;;;;;;;22.60;13.83;;;;;;;20.25;71.71;94787.44;1612821;87;21094;-63
2021/07/26 06:43:52;;;;;;;36.85;14.30;;;;;;;20.37;71.70;94790.33;1604593;87;21143;-59
2021/07/26 06:46:20;;;;;;;25.25;12.03;;;;;;;20.47;71.53;94788.03;1616293;87;21093;-61
2021/07/26 06:48:47;;;;;;;27.05;11.70;;;;;;;20.53;71.23;94781.82;1639012;86;21048;-62
2021/07/26 06:51:15;;;;;;;30.32;12.40;;;;;;;20.60;71.09;94783.44;1620731;87;21022;-62
2021/07/26 06:53:42;;;;;;;26.97;12.53;;;;;;;20.71;70.54;94784.08;1616726;87;21058;-52
2021/07/26 06:56:10;;;;;;;22.98;12.00;;;;;;;20.81;70.22;94786.70;1613938;87;21183;-59
2021/07/26 06:58:39;;;;;;;24.00;12.37;;;;;;;20.90;70.48;94774.63;1607351;87;21069;-57
2021/07/26 07:01:10;;;;;;;24.98;12.68;;;;;;;20.98;70.75;94772.84;1616210;87;21054;-63
2021/07/26 07:03:36;;;;;;;18.73;12.30;;;;;;;21.06;70.38;94773.05;1611215;87;21352;-55
2021/07/26 07:06:05;;;;;;;28.20;12.53;;;;;;;21.12;70.07;94769.61;1614754;87;21456;-57
2021/07/26 07:08:32;;;;;;;27.55;12.35;;;;;;;21.10;69.79;94774.31;1624466;87;22319;-57
2021/07/26 07:11:10;;;;;;;27.48;12.03;;;;;;;21.08;69.54;94783.86;1619405;87;21141;-65
2021/07/26 07:13:43;;;;;;;23.05;12.00;;;;;;;21.04;69.67;94780.56;1599857;87;21144;-57
2021/07/26 07:16:18;;;;;;;29.82;12.28;;;;;;;21.01;69.72;94779.42;1613489;87;21061;-57
2021/07/26 07:18:50;;;;;;;30.40;12.73;;;;;;;20.99;69.87;94788.34;1608219;87;21116;-64
2021/07/26 07:21:29;;;;;;;26.07;12.50;;;;;;;21.00;69.74;94790.49;1616932;87;21379;-60
2021/07/26 07:23:57;;;;;;;19.50;13.10;;;;;;;20.98;69.53;94787.45;1609177;87;22108;-56
2021/07/26 07:26:24;;;;;;;27.35;14.80;;;;;;;20.94;69.99;94775.77;1604034;87;21093;-61
2021/07/26 07:28:52;;;;;;;26.50;15.95;;;;;;;20.98;71.17;94779.06;1615202;87;21198;-63
2021/07/26 07:31:28;;;;;;;23.60;14.13;;;;;;;21.01;71.27;94778.03;1615917;87;21030;-61
2021/07/26 07:33:56;;;;;;;19.60;13.50;;;;;;;21.05;71.54;94777.12;1630146;85;21342;-61
2021/07/26 07:36:24;;;;;;;19.90;14.07;;;;;;;21.04;71.14;94777.00;1627682;85;21026;-57
2021/07/26 07:38:50;;;;;;;25.68;15.25;;;;;;;21.06;71.80;94777.23;1638256;85;21102;-58
2021/07/26 07:41:17;;;;;;;27.65;15.18;;;;;;;21.10;71.74;94782.70;1623791;86;21096;-64
2021/07/26 07:43:45;;;;;;;23.00;13.70;;;;;;;21.21;71.39;94779.09;1603309;87;21143;-60
2021/07/26 07:46:13;;;;;;;19.10;14.10;;;;;;;21.30;70.58;94771.82;1646258;86;21533;-61
2021/07/26 07:48:41;;;;;;;18.20;13.10;;;;;;;21.37;70.60;94775.47;1652488;84;21529;-61
2021/07/26 07:51:09;;;;;;;22.07;12.25;;;;;;;21.47;69.89;94778.10;1596317;87;21128;-55
2021/07/26 07:53:36;;;;;;;16.25;12.03;;;;;;;21.62;69.23;94777.91;1608041;87;21218;-62
2021/07/26 07:56:04;;;;;;;15.63;12.68;;;;;;;21.81;68.83;94769.66;1666501;84;21077;-57
2021/07/26 07:58:30;;;;;;;18.50;12.28;;;;;;;22.01;68.56;94774.87;1658653;84;22294;-59
2021/07/26 08:00:58;;;;;;;14.85;12.18;;;;;;;22.19;67.77;94774.34;1664388;84;21173;-57
2021/07/26 08:03:26;;;;;;;21.30;11.38;;;;;;;22.33;66.50;94776.64;1668888;84;21406;-61
2021/07/26 08:05:53;;;;;;;15.45;11.43;;;;;;;22.38;65.80;94781.46;1669240;84;21513;-59
2021/07/26 08:08:20;;;;;;;15.55;10.30;;;;;;;22.36;65.24;94773.56;1632471;84;21083;-63
2021/07/26 08:10:47;;;;;;;16.35;11.60;;;;;;;22.39;64.95;94782.98;1616119;86;21183;-61
2021/07/26 08:13:22;;;;;;;11.78;10.58;;;;;;;22.44;64.53;94785.74;1641442;86;20997;-64
2021/07/26 08:15:54;;;;;;;12.25;10.98;;;;;;;22.51;64.19;94779.55;1652050;85;21419;-58
2021/07/26 08:18:21;;;;;;;14.23;11.20;;;;;;;22.64;63.48;94777.54;1613765;87;21088;-64
2021/07/26 08:20:48;;;;;;;14.90;10.78;;;;;;;22.81;63.12;94779.54;1639698;86;21042;-66
2021/07/26 08:23:15;;;;;;;19.62;10.78;;;;;;;22.99;62.83;94779.59;1632376;86;21155;-60
2021/07/26 08:25:43;;;;;;;13.15;10.32;;;;;;;23.17;62.54;94781.70;1630788;86;21090;-58
2021/07/26 08:28:10;;;;;;;13.83;11.20;;;;;;;23.37;62.20;94778.39;1641847;84;21072;-59
2021/07/26 08:30:37;;;;;;;12.93;10.70;;;;;;;23.60;62.07;94788.05;1635987;86;21196;-59
2021/07/26 08:33:04;;;;;;;14.73;11.00;;;;;;;23.82;61.42;94789.20;1656602;85;21083;-56
2021/07/26 08:35:31;;;;;;;12.95;9.80;;;;;;;23.98;60.88;94787.44;1619477;86;21148;-60
2021/07/26 08:37:57;;;;;;;11.48;10.28;;;;;;;24.07;60.13;94786.41;1624864;84;21101;-54
2021/07/26 08:40:26;;;;;;;14.87;11.15;;;;;;;24.17;59.99;94790.35;1638657;86;21076;-69
2021/07/26 08:42:54;;;;;;;18.23;11.80;;;;;;;24.29;59.44;94777.62;1628585;85;21066;-62
2021/07/26 08:45:21;;;;;;;19.23;11.12;;;;;;;24.46;58.96;94784.50;1630575;85;21535;-63
2021/07/26 08:47:48;;;;;;;21.97;10.95;;;;;;;24.62;58.52;94777.09;1674891;84;21146;-66
2021/07/26 08:50:17;;;;;;;13.72;10.53;;;;;;;24.79;58.30;94778.97;1674960;84;21624;-61
2021/07/26 08:52:49;;;;;;;17.12;10.20;;;;;;;24.96;58.02;94780.84;1685770;84;21106;-61
2021/07/26 08:55:18;;;;;;;21.05;11.25;;;;;;;25.08;57.38;94776.52;1674337;83;21056;-66
2021/07/26 08:57:48;;;;;;;13.28;10.13;;;;;;;25.14;57.63;94774.34;1620074;86;21506;-61
2021/07/26 09:00:20;;;;;;;13.48;10.20;;;;;;;25.24;57.69;94761.36;1632676;85;21321;-67
2021/07/26 09:02:47;;;;;;;21.90;10.15;;;;;;;25.36;57.91;94762.66;1661889;85;21130;-62
2021/07/26 09:05:14;;;;;;;19.30;10.80;;;;;;;25.50;58.06;94755.72;1673585;84;20992;-60
2021/07/26 09:07:42;;;;;;;11.97;10.78;;;;;;;25.68;59.03;94754.81;1657657;84;21411;-65
2021/07/26 09:10:20;;;;;;;12.07;10.05;;;;;;;25.87;58.85;94753.38;1665464;84;21104;-60
2021/07/26 09:12:49;;;;;;;13.22;10.82;;;;;;;26.04;58.43;94748.88;1614444;87;21159;-64
2021/07/26 09:15:34;;;;;;;15.30;10.32;;;;;;;26.24;57.51;94743.91;1619860;87;21077;-63
2021/07/26 09:18:06;;;;;;;11.08;9.95;;;;;;;26.40;56.87;94741.34;1613706;87;20964;-64
2021/07/26 09:20:35;;;;;;;14.93;10.67;;;;;;;26.53;56.51;94739.12;1615263;87;21089;-63
2021/07/26 09:23:16;;;;;;;18.62;10.35;;;;;;;26.65;55.95;94741.78;1624771;87;22496;-62
2021/07/26 09:25:44;;;;;;;18.87;10.48;;;;;;;26.73;56.15;94737.70;1618526;86;22245;-62
2021/07/26 09:28:20;;;;;;;12.55;10.25;;;;;;;26.81;57.12;94734.95;1630573;86;22463;-64
2021/07/26 09:30:54;;;;;;;15.40;10.45;;;;;;;26.95;55.93;94731.46;1629498;85;21073;-63
2021/07/26 09:33:28;;;;;;;12.73;10.23;;;;;;;27.13;56.25;94726.25;1638414;85;22038;-64
2021/07/26 09:36:04;;;;;;;12.18;9.15;;;;;;;27.29;54.75;94722.84;1610608;86;20978;-66
2021/07/26 09:38:32;;;;;;;12.85;10.35;;;;;;;27.40;54.53;94720.45;1644093;85;21957;-64
2021/07/26 09:41:01;;;;;;;17.73;9.95;;;;;;;27.51;53.93;94713.71;1650490;85;21053;-61
2021/07/26 09:43:29;;;;;;;16.32;10.08;;;;;;;27.62;53.37;94716.22;1623160;87;21207;-62
2021/07/26 09:45:56;;;;;;;16.10;10.72;;;;;;;27.70;53.00;94713.52;1632015;86;21084;-65
2021/07/26 09:48:27;;;;;;;12.78;10.23;;;;;;;27.84;54.12;94710.69;1630878;85;21092;-66
2021/07/26 09:50:56;;;;;;;11.90;9.78;;;;;;;28.00;53.94;94711.56;1634259;86;21165;-62
2021/07/26 09:53:25;;;;;;;11.70;9.65;;;;;;;28.14;53.33;94710.73;1616979;86;21645;-58
2021/07/26 09:55:58;;;;;;;12.88;10.15;;;;;;;28.27;52.46;94710.58;1653846;84;21100;-66
2021/07/26 09:58:38;;;;;;;10.72;9.25;;;;;;;28.46;54.29;94709.59;1644563;85;21648;-59
2021/07/26 10:01:06;;;;;;;16.35;10.15;;;;;;;28.65;51.98;94714.99;1646910;85;21379;-59
2021/07/26 10:03:34;;;;;;;9.68;8.68;;;;;;;28.90;51.16;94712.34;1660397;85;21246;-63
2021/07/26 10:06:02;;;;;;;10.80;9.35;;;;;;;29.12;49.46;94713.00;1650250;85;21096;-57
2021/07/26 10:08:29;;;;;;;13.18;9.45;;;;;;;29.31;49.63;94708.41;1619893;87;21099;-58
2021/07/26 10:10:57;;;;;;;11.22;8.60;;;;;;;29.49;48.97;94702.25;1643949;85;21152;-59
2021/07/26 10:13:24;;;;;;;18.42;10.40;;;;;;;29.56;48.34;94709.97;1643305;85;21077;-62
2021/07/26 10:15:53;;;;;;;24.65;9.83;;;;;;;29.57;48.23;94710.05;1650014;86;21120;-62
2021/07/26 10:18:21;;;;;;;13.18;9.05;;;;;;;29.64;47.96;94707.88;1659207;85;22297;-61
2021/07/26 10:20:53;;;;;;;11.03;8.80;;;;;;;29.77;48.43;94699.87;1646928;86;21110;-60
2021/07/26 10:23:21;;;;;;;14.87;10.03;;;;;;;29.96;48.46;94697.31;1636008;86;21504;-60
2021/07/26 10:25:55;;;;;;;11.33;9.48;;;;;;;30.13;46.29;94703.11;1660935;84;21060;-60
2021/07/26 10:28:32;;;;;;;17.42;9.28;;;;;;;30.22;45.99;94699.64;1656046;85;22036;-61
2021/07/26 10:30:59;;;;;;;13.78;10.00;;;;;;;30.28;45.88;94702.34;1642793;86;21233;-55
2021/07/26 10:33:26;;;;;;;17.70;9.85;;;;;;;30.29;44.54;94709.53;1646247;85;21318;-59
2021/07/26 10:35:54;;;;;;;13.22;9.45;;;;;;;30.27;45.68;94706.52;1617958;85;21030;-58
2021/07/26 10:38:46;;;;;;;9.98;8.98;;;;;;;30.26;46.47;94706.43;1643638;85;21526;-56
2021/07/26 10:41:13;;;;;;;;;;;;;;;30.23;45.78;94700.49;1620236;87;22196;-56
2021/07/26 10:43:58;;;;;;;13.68;8.65;;;;;;;30.17;46.39;94696.36;1648402;84;20192;-61
2021/07/26 10:46:24;;;;;;;11.03;8.65;;;;;;;30.12;45.94;94685.31;1658533;85;21652;-60
2021/07/26 10:48:52;;;;;;;12.55;8.53;;;;;;;30.17;46.03;94692.84;1655672;85;21041;-59
2021/07/26 10:51:40;;;;;;;10.28;9.03;;;;;;;30.27;45.77;94687.30;1652960;85;21095;-57
2021/07/26 10:54:08;;;;;;;12.70;9.33;;;;;;;30.41;47.44;94689.30;1655082;85;21105;-57
2021/07/26 10:57:05;;;;;;;12.35;8.70;;;;;;;30.42;47.17;94687.96;1632645;86;21528;-56
2021/07/26 11:00:15;;;;;;;11.95;8.85;;;;;;;30.42;46.42;94693.64;1609705;87;21097;-59
2021/07/26 11:02:45;;;;;;;15.93;9.95;;;;;;;30.42;46.67;94695.71;1664648;84;22384;-58
2021/07/26 11:05:30;;;;;;;10.43;9.33;;;;;;;30.40;46.13;94693.47;1637909;84;21072;-56
2021/07/26 11:08:21;;;;;;;13.25;8.98;;;;;;;30.35;45.93;94694.43;1648457;84;21204;-56
2021/07/26 11:10:53;;;;;;;12.05;9.58;;;;;;;30.27;44.95;94690.90;1643117;86;21539;-59
2021/07/26 11:13:20;;;;;;;13.08;8.65;;;;;;;30.21;45.77;94690.38;1659141;84;21301;-58
2021/07/26 11:15:58;;;;;;;13.40;9.30;;;;;;;30.12;45.59;94693.09;1645810;85;21744;-65
2021/07/26 11:18:39;;;;;;;12.40;9.40;;;;;;;29.99;46.56;94688.37;1647962;86;21159;-57
2021/07/26 11:21:16;;;;;;;13.30;9.30;;;;;;;29.89;47.75;94680.41;1644824;86;21299;-59
2021/07/26 11:23:55;;;;;;;13.20;8.60;;;;;;;29.82;48.54;94680.45;1646123;84;21191;-58
2021/07/26 11:26:29;;;;;;;12.78;8.65;;;;;;;29.76;48.98;94684.17;1639485;86;22504;-65
2021/07/26 11:29:01;;;;;;;9.45;8.40;;;;;;;29.71;49.12;94681.55;1646838;85;21087;-62
2021/07/26 11:31:34;;;;;;;13.65;9.60;;;;;;;29.78;48.90;94682.16;1665822;84;21123;-64
2021/07/26 11:34:12;;;;;;;12.78;8.23;;;;;;;29.78;47.99;94680.75;1649253;84;26284;-58